KOEO/OEO METAR and TAF weather

Enter ICAO airport designator
Station Type Date Time Source
KOEO METAR 2019/02/16 06:55 UTC NOAA

KOEO 160655Z AUTO 00000KT 10SM CLR M23/M25 A3018 RMK AO2 T12271250


Station Type Date Time Source
KOEO Decoded METAR 2019/02/16 06:55 UTC NOAA

Osceola, L O Simenstad Municipal Airport, WI, United States (KOEO) 45-18-31N 092-41-24W
Feb 16, 2019 - 01:55 AM EST / 2019.02.16 0655 UTC
Wind: Calm:0
Visibility: 10 mile(s):0
Sky conditions: clear
Temperature: -8.9 F (-22.7 C)
Dew Point: -13.0 F (-25.0 C)
Relative Humidity: 81%
Pressure (altimeter): 30.18 in. Hg (1022 hPa)
ob: KOEO 160655Z AUTO 00000KT 10SM CLR M23/M25 A3018 RMK AO2 T12271250
cycle: 7

Station Type Date Time Source
KOEO TAF UTC NOAA

Error!


Example: see airport list